»·PEaware :: N717TS KDEW-KELN

N717TS :: KDEW-KELN

FLIGHT INFORMATION

Flight Status: Arrived
Operator: Privately registered:
United States
More flights under this callsign
Pilot: Ty S. (2873)
Aircraft: Diamond DA-62
(DA62)
More flights by this aircraft type
Origin: KDEW Deer Park
United States
Destination: KELN Bowers
United States
More flights between these airports :: More routes between these airports
Route: +GEG V2 ELN
File this flight plan on PilotEdge
Remarks:
Altitude:
(Current/Filed)
8,000ft
Speed:
(Current/Filed)
180kts
Departed: 08-May-20 06:19 PM
Arrived: 08-May-20 07:12 PM
Distance/Time
Traveled:
138nm/0:53
Distance/Time
To Go:
Arrived

Flight Plot

Page will automatically refresh every two minutes.

Flight plan parsing failed; only flown route is shown


Map Options




Map Legend


Flown Route
Filed Route
Departure Airport
Arrival Airport
Navaid (VOR, NDB)
Fix

Horizontal Profiles

Position Reports

Time Latitude Longitude Heading Altitude Ground
Speed
08-May-20 18:10 47.966056 -117.433783 157 2213ft 0kts
08-May-20 18:11 47.966056 -117.433783 157 2213ft 0kts
08-May-20 18:12 47.966056 -117.433783 157 2213ft 0kts
08-May-20 18:13 47.966019 -117.433736 127 2213ft 3kts
08-May-20 18:14 47.968018 -117.433346 0 2213ft 19kts
08-May-20 18:15 47.973999 -117.433367 356 2213ft 21kts
08-May-20 18:16 47.976866 -117.432276 90 2213ft 5kts
08-May-20 18:17 47.976270 -117.431219 183 2213ft 3kts
08-May-20 18:18 47.955261 -117.431017 174 2730ft 108kts
08-May-20 18:19 47.924455 -117.429881 171 4143ft 112kts
08-May-20 18:20 47.893415 -117.427680 173 5519ft 111kts
08-May-20 18:21 47.862588 -117.425487 173 6725ft 113kts
08-May-20 18:22 47.830901 -117.424386 196 7918ft 119kts
08-May-20 18:23 47.793144 -117.453331 205 8011ft 176kts
08-May-20 18:24 47.747763 -117.487992 205 8004ft 187kts
08-May-20 18:25 47.701159 -117.523526 205 8000ft 189kts
08-May-20 18:26 47.654357 -117.559153 205 7999ft 189kts
08-May-20 18:27 47.607490 -117.594747 205 7999ft 189kts
08-May-20 18:28 47.565605 -117.638655 244 8002ft 191kts
08-May-20 18:29 47.547953 -117.712970 252 7999ft 191kts
08-May-20 18:30 47.532510 -117.788241 253 7999ft 191kts
08-May-20 18:31 47.517220 -117.863517 253 7999ft 191kts
08-May-20 18:32 47.501862 -117.938939 253 7999ft 191kts
08-May-20 18:33 47.486469 -118.014257 253 7999ft 191kts
08-May-20 18:34 47.470914 -118.090073 253 8000ft 191kts
08-May-20 18:35 47.455271 -118.166027 253 8000ft 191kts
08-May-20 18:36 47.439596 -118.241858 253 8000ft 191kts
08-May-20 18:37 47.423890 -118.317546 253 8000ft 191kts
08-May-20 18:38 47.408123 -118.393223 253 7991ft 192kts
08-May-20 18:39 47.392254 -118.469125 253 7979ft 192kts
08-May-20 18:40 47.376323 -118.545034 254 7968ft 193kts
08-May-20 18:41 47.360293 -118.621145 254 7964ft 193kts
08-May-20 18:42 47.344541 -118.695647 253 7963ft 192kts
08-May-20 18:43 47.328344 -118.771840 253 7963ft 192kts
08-May-20 18:44 47.312181 -118.847671 252 7963ft 192kts
08-May-20 18:45 47.295968 -118.923509 252 7963ft 193kts
08-May-20 18:46 47.279663 -118.999479 251 7963ft 192kts
08-May-20 18:47 47.263453 -119.074681 251 7963ft 192kts
08-May-20 18:48 47.247205 -119.149798 251 7963ft 191kts
08-May-20 18:49 47.230969 -119.224627 251 7963ft 191kts
08-May-20 18:50 47.214655 -119.299540 251 7963ft 191kts
08-May-20 18:51 47.201609 -119.375642 256 7963ft 192kts
08-May-20 18:52 47.189384 -119.452503 256 7963ft 191kts
08-May-20 18:53 47.177188 -119.528967 256 7964ft 191kts
08-May-20 18:54 47.164975 -119.605192 256 7964ft 191kts
08-May-20 18:55 47.153006 -119.679543 255 7962ft 191kts
08-May-20 18:56 47.140740 -119.755380 255 7963ft 190kts
08-May-20 18:57 47.128439 -119.831217 255 7960ft 190kts
08-May-20 18:58 47.116094 -119.906824 254 7957ft 189kts
08-May-20 18:59 47.103793 -119.981862 254 7954ft 188kts
08-May-20 19:00 47.091500 -120.056486 254 7954ft 187kts
08-May-20 19:01 47.079140 -120.130983 254 7957ft 187kts
08-May-20 19:02 47.066838 -120.205249 254 8006ft 187kts
08-May-20 19:03 47.055059 -120.280555 256 7359ft 188kts
08-May-20 19:04 47.045725 -120.352363 254 5661ft 176kts
08-May-20 19:05 47.034028 -120.421108 256 3723ft 172kts
08-May-20 19:06 47.036649 -120.482809 305 3212ft 138kts
08-May-20 19:07 47.057085 -120.529958 301 3440ft 133kts
08-May-20 19:08 47.064885 -120.566894 193 3046ft 95kts
08-May-20 19:09 47.047077 -120.548182 131 2200ft 80kts
08-May-20 19:10 47.033477 -120.526687 131 1767ft 45kts
08-May-20 19:11 47.030358 -120.524905 269 1767ft 18kts
08-May-20 19:12 47.030001 -120.528741 180 1767ft 0kts

Navigation Log

Ident Type
Flight plan parsing failed, navigation log unavailable